sensor_id;sensor_type;location;lat;lon;timestamp;P1;durP1;ratioP1;P2;durP2;ratioP2
21786;SDS011;11055;50.870;4.316;2023-02-22T00:00:12;67.75;;;29.70;;
21786;SDS011;11055;50.870;4.316;2023-02-22T00:02:58;59.05;;;28.63;;
21786;SDS011;11055;50.870;4.316;2023-02-22T00:05:24;65.00;;;30.85;;
21786;SDS011;11055;50.870;4.316;2023-02-22T00:07:52;59.50;;;29.05;;
21786;SDS011;11055;50.870;4.316;2023-02-22T00:10:21;60.70;;;29.58;;
21786;SDS011;11055;50.870;4.316;2023-02-22T00:12:48;67.38;;;29.90;;
21786;SDS011;11055;50.870;4.316;2023-02-22T00:15:16;67.13;;;30.05;;
21786;SDS011;11055;50.870;4.316;2023-02-22T00:17:44;82.90;;;30.35;;
21786;SDS011;11055;50.870;4.316;2023-02-22T00:20:10;70.25;;;30.98;;
21786;SDS011;11055;50.870;4.316;2023-02-22T00:22:41;78.05;;;31.02;;
21786;SDS011;11055;50.870;4.316;2023-02-22T00:25:10;62.10;;;30.23;;
21786;SDS011;11055;50.870;4.316;2023-02-22T00:27:37;60.50;;;29.60;;
21786;SDS011;11055;50.870;4.316;2023-02-22T00:30:04;84.10;;;32.10;;
21786;SDS011;11055;50.870;4.316;2023-02-22T00:32:30;76.85;;;31.70;;
21786;SDS011;11055;50.870;4.316;2023-02-22T00:34:56;66.28;;;32.33;;
21786;SDS011;11055;50.870;4.316;2023-02-22T00:37:22;63.47;;;31.25;;
21786;SDS011;11055;50.870;4.316;2023-02-22T00:39:48;73.35;;;30.88;;
21786;SDS011;11055;50.870;4.316;2023-02-22T00:42:15;65.95;;;30.88;;
21786;SDS011;11055;50.870;4.316;2023-02-22T00:44:42;72.47;;;31.45;;
21786;SDS011;11055;50.870;4.316;2023-02-22T00:47:08;68.03;;;30.73;;
21786;SDS011;11055;50.870;4.316;2023-02-22T00:49:34;97.25;;;31.67;;
21786;SDS011;11055;50.870;4.316;2023-02-22T00:52:00;159.57;;;29.33;;
21786;SDS011;11055;50.870;4.316;2023-02-22T00:54:26;123.88;;;30.65;;
21786;SDS011;11055;50.870;4.316;2023-02-22T00:56:52;106.55;;;29.25;;
21786;SDS011;11055;50.870;4.316;2023-02-22T00:59:18;154.80;;;29.52;;
21786;SDS011;11055;50.870;4.316;2023-02-22T01:01:43;193.07;;;29.60;;
21786;SDS011;11055;50.870;4.316;2023-02-22T01:04:09;111.80;;;27.23;;
21786;SDS011;11055;50.870;4.316;2023-02-22T01:06:35;135.93;;;29.60;;
21786;SDS011;11055;50.870;4.316;2023-02-22T01:09:01;76.93;;;27.85;;
21786;SDS011;11055;50.870;4.316;2023-02-22T01:11:27;72.43;;;27.38;;
21786;SDS011;11055;50.870;4.316;2023-02-22T01:13:53;139.15;;;29.63;;
21786;SDS011;11055;50.870;4.316;2023-02-22T01:16:21;105.20;;;29.73;;
21786;SDS011;11055;50.870;4.316;2023-02-22T01:18:47;128.63;;;28.25;;
21786;SDS011;11055;50.870;4.316;2023-02-22T01:21:13;67.30;;;28.92;;
21786;SDS011;11055;50.870;4.316;2023-02-22T01:23:39;80.85;;;27.75;;
21786;SDS011;11055;50.870;4.316;2023-02-22T01:26:04;67.70;;;28.08;;
21786;SDS011;11055;50.870;4.316;2023-02-22T01:28:30;53.05;;;27.67;;
21786;SDS011;11055;50.870;4.316;2023-02-22T01:30:56;65.97;;;27.90;;
21786;SDS011;11055;50.870;4.316;2023-02-22T01:33:22;92.40;;;27.92;;
21786;SDS011;11055;50.870;4.316;2023-02-22T01:35:48;64.05;;;27.00;;
21786;SDS011;11055;50.870;4.316;2023-02-22T01:38:15;70.63;;;29.58;;
21786;SDS011;11055;50.870;4.316;2023-02-22T01:40:41;61.55;;;27.83;;
21786;SDS011;11055;50.870;4.316;2023-02-22T01:43:29;85.00;;;28.73;;
21786;SDS011;11055;50.870;4.316;2023-02-22T01:46:03;80.10;;;26.88;;
21786;SDS011;11055;50.870;4.316;2023-02-22T01:48:40;75.90;;;27.27;;
21786;SDS011;11055;50.870;4.316;2023-02-22T01:51:13;97.53;;;26.83;;
21786;SDS011;11055;50.870;4.316;2023-02-22T01:56:10;96.78;;;26.70;;
21786;SDS011;11055;50.870;4.316;2023-02-22T01:58:37;70.45;;;26.88;;
21786;SDS011;11055;50.870;4.316;2023-02-22T02:01:09;85.50;;;26.08;;
21786;SDS011;11055;50.870;4.316;2023-02-22T02:03:36;55.10;;;26.63;;
21786;SDS011;11055;50.870;4.316;2023-02-22T02:06:04;60.22;;;25.95;;
21786;SDS011;11055;50.870;4.316;2023-02-22T02:08:38;59.92;;;27.13;;
21786;SDS011;11055;50.870;4.316;2023-02-22T02:11:17;52.83;;;26.00;;
21786;SDS011;11055;50.870;4.316;2023-02-22T02:13:45;55.85;;;26.70;;
21786;SDS011;11055;50.870;4.316;2023-02-22T02:16:11;49.15;;;25.30;;
21786;SDS011;11055;50.870;4.316;2023-02-22T02:18:37;44.75;;;26.02;;
21786;SDS011;11055;50.870;4.316;2023-02-22T02:27:07;43.47;;;24.45;;
21786;SDS011;11055;50.870;4.316;2023-02-22T02:32:14;41.42;;;24.08;;
21786;SDS011;11055;50.870;4.316;2023-02-22T02:40:20;42.42;;;24.35;;
21786;SDS011;11055;50.870;4.316;2023-02-22T02:45:48;38.10;;;24.70;;
21786;SDS011;11055;50.870;4.316;2023-02-22T02:48:42;35.50;;;22.42;;
21786;SDS011;11055;50.870;4.316;2023-02-22T02:51:14;34.97;;;22.25;;
21786;SDS011;11055;50.870;4.316;2023-02-22T02:53:43;34.05;;;22.48;;
21786;SDS011;11055;50.870;4.316;2023-02-22T02:56:12;35.88;;;23.83;;
21786;SDS011;11055;50.870;4.316;2023-02-22T02:58:44;36.35;;;22.48;;
21786;SDS011;11055;50.870;4.316;2023-02-22T03:01:13;35.53;;;21.75;;
21786;SDS011;11055;50.870;4.316;2023-02-22T03:09:53;31.65;;;21.42;;
21786;SDS011;11055;50.870;4.316;2023-02-22T03:12:46;31.80;;;20.40;;
21786;SDS011;11055;50.870;4.316;2023-02-22T03:26:42;28.55;;;19.48;;
21786;SDS011;11055;50.870;4.316;2023-02-22T03:29:13;28.55;;;19.27;;
21786;SDS011;11055;50.870;4.316;2023-02-22T03:31:44;27.25;;;19.65;;
21786;SDS011;11055;50.870;4.316;2023-02-22T03:34:25;30.05;;;19.25;;
21786;SDS011;11055;50.870;4.316;2023-02-22T03:37:07;26.40;;;18.27;;
21786;SDS011;11055;50.870;4.316;2023-02-22T03:39:47;25.63;;;18.63;;
21786;SDS011;11055;50.870;4.316;2023-02-22T03:42:20;25.45;;;17.92;;
21786;SDS011;11055;50.870;4.316;2023-02-22T03:44:50;26.75;;;18.20;;
21786;SDS011;11055;50.870;4.316;2023-02-22T03:47:23;26.52;;;18.55;;
21786;SDS011;11055;50.870;4.316;2023-02-22T03:49:57;26.65;;;17.98;;
21786;SDS011;11055;50.870;4.316;2023-02-22T03:52:31;25.33;;;17.63;;
21786;SDS011;11055;50.870;4.316;2023-02-22T03:55:00;25.88;;;17.95;;
21786;SDS011;11055;50.870;4.316;2023-02-22T03:57:31;24.45;;;18.60;;
21786;SDS011;11055;50.870;4.316;2023-02-22T03:59:59;24.80;;;17.17;;
21786;SDS011;11055;50.870;4.316;2023-02-22T04:02:25;26.35;;;17.90;;
21786;SDS011;11055;50.870;4.316;2023-02-22T04:04:50;26.35;;;18.25;;
21786;SDS011;11055;50.870;4.316;2023-02-22T04:07:19;25.80;;;17.50;;
21786;SDS011;11055;50.870;4.316;2023-02-22T04:09:45;26.30;;;17.98;;
21786;SDS011;11055;50.870;4.316;2023-02-22T04:12:11;28.30;;;18.10;;
21786;SDS011;11055;50.870;4.316;2023-02-22T04:14:37;22.05;;;16.33;;
21786;SDS011;11055;50.870;4.316;2023-02-22T04:17:02;24.20;;;17.55;;
21786;SDS011;11055;50.870;4.316;2023-02-22T04:19:28;25.60;;;18.02;;
21786;SDS011;11055;50.870;4.316;2023-02-22T04:21:54;22.73;;;16.40;;
21786;SDS011;11055;50.870;4.316;2023-02-22T04:24:19;22.30;;;16.80;;
21786;SDS011;11055;50.870;4.316;2023-02-22T04:26:45;26.52;;;17.85;;
21786;SDS011;11055;50.870;4.316;2023-02-22T04:29:11;23.58;;;17.10;;
21786;SDS011;11055;50.870;4.316;2023-02-22T04:31:37;23.15;;;16.45;;
21786;SDS011;11055;50.870;4.316;2023-02-22T04:34:02;22.42;;;16.52;;
21786;SDS011;11055;50.870;4.316;2023-02-22T04:36:28;22.38;;;16.95;;
21786;SDS011;11055;50.870;4.316;2023-02-22T04:38:57;25.58;;;18.45;;
21786;SDS011;11055;50.870;4.316;2023-02-22T04:41:24;25.88;;;18.58;;
21786;SDS011;11055;50.870;4.316;2023-02-22T04:43:50;23.83;;;17.00;;
21786;SDS011;11055;50.870;4.316;2023-02-22T04:46:15;25.33;;;16.92;;
21786;SDS011;11055;50.870;4.316;2023-02-22T04:48:41;25.33;;;17.15;;
21786;SDS011;11055;50.870;4.316;2023-02-22T04:51:07;22.08;;;16.98;;
21786;SDS011;11055;50.870;4.316;2023-02-22T04:53:33;24.55;;;17.08;;
21786;SDS011;11055;50.870;4.316;2023-02-22T04:55:59;21.52;;;16.13;;
21786;SDS011;11055;50.870;4.316;2023-02-22T04:58:25;25.60;;;16.80;;
21786;SDS011;11055;50.870;4.316;2023-02-22T05:00:51;20.23;;;15.70;;
21786;SDS011;11055;50.870;4.316;2023-02-22T05:03:17;21.50;;;15.90;;
21786;SDS011;11055;50.870;4.316;2023-02-22T05:05:43;21.55;;;15.48;;
21786;SDS011;11055;50.870;4.316;2023-02-22T05:08:09;19.17;;;14.65;;
21786;SDS011;11055;50.870;4.316;2023-02-22T05:10:34;23.42;;;15.18;;
21786;SDS011;11055;50.870;4.316;2023-02-22T05:13:00;24.20;;;16.38;;
21786;SDS011;11055;50.870;4.316;2023-02-22T05:15:26;22.33;;;14.85;;
21786;SDS011;11055;50.870;4.316;2023-02-22T05:17:51;20.58;;;15.18;;
21786;SDS011;11055;50.870;4.316;2023-02-22T05:20:22;21.02;;;14.95;;
21786;SDS011;11055;50.870;4.316;2023-02-22T05:22:54;23.70;;;15.20;;
21786;SDS011;11055;50.870;4.316;2023-02-22T05:25:21;18.60;;;14.38;;
21786;SDS011;11055;50.870;4.316;2023-02-22T05:27:53;21.05;;;14.60;;
21786;SDS011;11055;50.870;4.316;2023-02-22T05:30:22;20.02;;;14.70;;
21786;SDS011;11055;50.870;4.316;2023-02-22T05:32:53;21.40;;;14.25;;
21786;SDS011;11055;50.870;4.316;2023-02-22T05:35:19;19.15;;;14.95;;
21786;SDS011;11055;50.870;4.316;2023-02-22T05:37:45;18.48;;;14.30;;
21786;SDS011;11055;50.870;4.316;2023-02-22T05:40:11;20.35;;;15.05;;
21786;SDS011;11055;50.870;4.316;2023-02-22T05:42:38;19.63;;;13.90;;
21786;SDS011;11055;50.870;4.316;2023-02-22T05:45:07;17.95;;;13.43;;
21786;SDS011;11055;50.870;4.316;2023-02-22T05:47:36;19.70;;;14.60;;
21786;SDS011;11055;50.870;4.316;2023-02-22T05:50:01;18.13;;;13.85;;
21786;SDS011;11055;50.870;4.316;2023-02-22T05:52:27;17.50;;;13.98;;
21786;SDS011;11055;50.870;4.316;2023-02-22T05:54:53;19.50;;;13.80;;
21786;SDS011;11055;50.870;4.316;2023-02-22T05:57:18;16.58;;;13.05;;
21786;SDS011;11055;50.870;4.316;2023-02-22T05:59:44;17.23;;;13.30;;
21786;SDS011;11055;50.870;4.316;2023-02-22T06:02:10;19.15;;;13.45;;
21786;SDS011;11055;50.870;4.316;2023-02-22T06:04:35;18.85;;;14.18;;
21786;SDS011;11055;50.870;4.316;2023-02-22T06:07:01;19.88;;;13.82;;
21786;SDS011;11055;50.870;4.316;2023-02-22T06:09:26;18.20;;;13.25;;
21786;SDS011;11055;50.870;4.316;2023-02-22T06:11:52;17.40;;;13.50;;
21786;SDS011;11055;50.870;4.316;2023-02-22T06:14:18;17.42;;;13.55;;
21786;SDS011;11055;50.870;4.316;2023-02-22T06:16:43;20.98;;;14.00;;
21786;SDS011;11055;50.870;4.316;2023-02-22T06:19:16;20.35;;;14.55;;
21786;SDS011;11055;50.870;4.316;2023-02-22T06:21:52;19.30;;;13.90;;
21786;SDS011;11055;50.870;4.316;2023-02-22T06:24:20;20.35;;;13.57;;
21786;SDS011;11055;50.870;4.316;2023-02-22T06:26:46;20.05;;;12.95;;
21786;SDS011;11055;50.870;4.316;2023-02-22T06:29:18;19.48;;;12.43;;
21786;SDS011;11055;50.870;4.316;2023-02-22T06:31:44;21.73;;;14.30;;
21786;SDS011;11055;50.870;4.316;2023-02-22T06:34:09;15.93;;;12.98;;
21786;SDS011;11055;50.870;4.316;2023-02-22T06:36:35;21.65;;;12.82;;
21786;SDS011;11055;50.870;4.316;2023-02-22T06:39:01;17.00;;;13.30;;
21786;SDS011;11055;50.870;4.316;2023-02-22T06:41:27;18.60;;;12.60;;
21786;SDS011;11055;50.870;4.316;2023-02-22T06:43:53;20.60;;;12.68;;
21786;SDS011;11055;50.870;4.316;2023-02-22T06:46:18;15.45;;;11.98;;
21786;SDS011;11055;50.870;4.316;2023-02-22T06:48:45;15.70;;;12.45;;
21786;SDS011;11055;50.870;4.316;2023-02-22T06:51:11;18.67;;;13.30;;
21786;SDS011;11055;50.870;4.316;2023-02-22T06:53:36;19.02;;;12.55;;
21786;SDS011;11055;50.870;4.316;2023-02-22T06:56:02;19.85;;;13.95;;
21786;SDS011;11055;50.870;4.316;2023-02-22T06:58:28;19.98;;;13.57;;
21786;SDS011;11055;50.870;4.316;2023-02-22T07:00:54;16.67;;;13.25;;
21786;SDS011;11055;50.870;4.316;2023-02-22T07:03:19;21.33;;;14.23;;
21786;SDS011;11055;50.870;4.316;2023-02-22T07:05:45;20.98;;;14.77;;
21786;SDS011;11055;50.870;4.316;2023-02-22T07:08:11;17.98;;;13.77;;
21786;SDS011;11055;50.870;4.316;2023-02-22T07:10:37;19.45;;;13.75;;
21786;SDS011;11055;50.870;4.316;2023-02-22T07:13:05;19.60;;;14.15;;
21786;SDS011;11055;50.870;4.316;2023-02-22T07:15:32;23.05;;;13.70;;
21786;SDS011;11055;50.870;4.316;2023-02-22T07:17:59;18.38;;;14.25;;
21786;SDS011;11055;50.870;4.316;2023-02-22T07:20:25;21.40;;;13.25;;
21786;SDS011;11055;50.870;4.316;2023-02-22T07:22:53;17.55;;;13.75;;
21786;SDS011;11055;50.870;4.316;2023-02-22T07:25:19;18.65;;;13.95;;
21786;SDS011;11055;50.870;4.316;2023-02-22T07:27:45;20.33;;;13.13;;
21786;SDS011;11055;50.870;4.316;2023-02-22T07:30:19;23.60;;;13.40;;
21786;SDS011;11055;50.870;4.316;2023-02-22T07:32:54;17.42;;;12.65;;
21786;SDS011;11055;50.870;4.316;2023-02-22T07:35:21;18.85;;;12.65;;
21786;SDS011;11055;50.870;4.316;2023-02-22T07:37:49;18.40;;;12.65;;
21786;SDS011;11055;50.870;4.316;2023-02-22T07:40:15;21.27;;;12.65;;
21786;SDS011;11055;50.870;4.316;2023-02-22T07:45:17;20.45;;;13.48;;
21786;SDS011;11055;50.870;4.316;2023-02-22T07:47:44;20.75;;;12.02;;
21786;SDS011;11055;50.870;4.316;2023-02-22T07:50:12;20.30;;;12.35;;
21786;SDS011;11055;50.870;4.316;2023-02-22T07:52:38;21.98;;;12.57;;
21786;SDS011;11055;50.870;4.316;2023-02-22T07:55:04;20.50;;;12.20;;
21786;SDS011;11055;50.870;4.316;2023-02-22T07:57:33;16.42;;;12.73;;
21786;SDS011;11055;50.870;4.316;2023-02-22T07:59:58;23.00;;;12.77;;
21786;SDS011;11055;50.870;4.316;2023-02-22T08:02:24;19.33;;;12.93;;
21786;SDS011;11055;50.870;4.316;2023-02-22T08:04:50;19.20;;;12.70;;
21786;SDS011;11055;50.870;4.316;2023-02-22T08:07:16;20.30;;;13.00;;
21786;SDS011;11055;50.870;4.316;2023-02-22T08:09:41;20.45;;;13.50;;
21786;SDS011;11055;50.870;4.316;2023-02-22T08:12:07;21.92;;;12.10;;
21786;SDS011;11055;50.870;4.316;2023-02-22T08:14:32;20.33;;;12.25;;
21786;SDS011;11055;50.870;4.316;2023-02-22T08:16:58;18.20;;;11.88;;
21786;SDS011;11055;50.870;4.316;2023-02-22T08:19:24;14.73;;;11.30;;
21786;SDS011;11055;50.870;4.316;2023-02-22T08:21:49;18.80;;;12.63;;
21786;SDS011;11055;50.870;4.316;2023-02-22T08:24:15;17.58;;;12.07;;
21786;SDS011;11055;50.870;4.316;2023-02-22T08:26:44;17.40;;;12.75;;
21786;SDS011;11055;50.870;4.316;2023-02-22T08:29:13;22.70;;;11.55;;
21786;SDS011;11055;50.870;4.316;2023-02-22T08:31:39;25.98;;;12.93;;
21786;SDS011;11055;50.870;4.316;2023-02-22T08:34:05;17.95;;;12.27;;
21786;SDS011;11055;50.870;4.316;2023-02-22T08:36:30;19.77;;;12.23;;
21786;SDS011;11055;50.870;4.316;2023-02-22T08:38:58;14.38;;;11.00;;
21786;SDS011;11055;50.870;4.316;2023-02-22T08:41:24;18.75;;;12.15;;
21786;SDS011;11055;50.870;4.316;2023-02-22T08:43:49;18.80;;;12.73;;
21786;SDS011;11055;50.870;4.316;2023-02-22T08:46:16;21.90;;;14.55;;
21786;SDS011;11055;50.870;4.316;2023-02-22T08:48:48;19.95;;;12.65;;
21786;SDS011;11055;50.870;4.316;2023-02-22T08:51:15;17.98;;;12.27;;
21786;SDS011;11055;50.870;4.316;2023-02-22T08:53:41;17.10;;;11.75;;
21786;SDS011;11055;50.870;4.316;2023-02-22T08:56:06;18.30;;;12.65;;
21786;SDS011;11055;50.870;4.316;2023-02-22T08:58:32;20.13;;;13.05;;
21786;SDS011;11055;50.870;4.316;2023-02-22T09:00:57;35.88;;;19.33;;
21786;SDS011;11055;50.870;4.316;2023-02-22T09:03:23;31.83;;;16.23;;
21786;SDS011;11055;50.870;4.316;2023-02-22T09:05:49;18.73;;;12.43;;
21786;SDS011;11055;50.870;4.316;2023-02-22T09:08:15;21.10;;;11.40;;
21786;SDS011;11055;50.870;4.316;2023-02-22T09:10:41;19.10;;;12.52;;
21786;SDS011;11055;50.870;4.316;2023-02-22T09:13:09;22.13;;;13.27;;
21786;SDS011;11055;50.870;4.316;2023-02-22T09:15:35;29.92;;;18.90;;
21786;SDS011;11055;50.870;4.316;2023-02-22T09:18:02;23.50;;;16.08;;
21786;SDS011;11055;50.870;4.316;2023-02-22T09:20:28;20.73;;;13.00;;
21786;SDS011;11055;50.870;4.316;2023-02-22T09:22:54;27.20;;;13.15;;
21786;SDS011;11055;50.870;4.316;2023-02-22T09:25:20;17.95;;;12.82;;
21786;SDS011;11055;50.870;4.316;2023-02-22T09:27:47;21.10;;;12.63;;
21786;SDS011;11055;50.870;4.316;2023-02-22T09:30:18;18.85;;;13.15;;
21786;SDS011;11055;50.870;4.316;2023-02-22T09:32:56;25.40;;;13.85;;
21786;SDS011;11055;50.870;4.316;2023-02-22T09:35:24;17.80;;;12.30;;
21786;SDS011;11055;50.870;4.316;2023-02-22T09:37:53;18.92;;;12.70;;
21786;SDS011;11055;50.870;4.316;2023-02-22T09:40:24;19.38;;;13.32;;
21786;SDS011;11055;50.870;4.316;2023-02-22T09:48:12;24.50;;;13.73;;
21786;SDS011;11055;50.870;4.316;2023-02-22T09:50:41;20.50;;;13.55;;
21786;SDS011;11055;50.870;4.316;2023-02-22T09:53:21;17.70;;;13.13;;
21786;SDS011;11055;50.870;4.316;2023-02-22T09:55:53;18.15;;;13.07;;
21786;SDS011;11055;50.870;4.316;2023-02-22T10:04:18;22.42;;;13.57;;
21786;SDS011;11055;50.870;4.316;2023-02-22T10:11:57;20.70;;;13.55;;
21786;SDS011;11055;50.870;4.316;2023-02-22T10:20:16;21.07;;;14.00;;
21786;SDS011;11055;50.870;4.316;2023-02-22T10:25:33;19.20;;;14.18;;
21786;SDS011;11055;50.870;4.316;2023-02-22T10:30:34;19.83;;;14.40;;
21786;SDS011;11055;50.870;4.316;2023-02-22T10:33:23;18.10;;;13.43;;
21786;SDS011;11055;50.870;4.316;2023-02-22T10:35:53;21.48;;;14.25;;
21786;SDS011;11055;50.870;4.316;2023-02-22T10:38:21;20.65;;;14.18;;
21786;SDS011;11055;50.870;4.316;2023-02-22T10:40:53;21.80;;;13.80;;
21786;SDS011;11055;50.870;4.316;2023-02-22T10:43:47;20.65;;;15.05;;
21786;SDS011;11055;50.870;4.316;2023-02-22T10:46:14;23.98;;;16.02;;
21786;SDS011;11055;50.870;4.316;2023-02-22T10:48:44;19.65;;;15.93;;
21786;SDS011;11055;50.870;4.316;2023-02-22T10:51:12;23.08;;;16.63;;
21786;SDS011;11055;50.870;4.316;2023-02-22T10:53:38;26.40;;;16.13;;
21786;SDS011;11055;50.870;4.316;2023-02-22T10:56:15;22.80;;;17.15;;
21786;SDS011;11055;50.870;4.316;2023-02-22T10:58:53;23.83;;;15.65;;
21786;SDS011;11055;50.870;4.316;2023-02-22T11:04:11;23.05;;;15.82;;
21786;SDS011;11055;50.870;4.316;2023-02-22T11:06:40;23.88;;;17.83;;
21786;SDS011;11055;50.870;4.316;2023-02-22T11:09:15;22.55;;;16.83;;
21786;SDS011;11055;50.870;4.316;2023-02-22T11:14:10;28.55;;;19.83;;
21786;SDS011;11055;50.870;4.316;2023-02-22T11:16:38;24.73;;;17.83;;
21786;SDS011;11055;50.870;4.316;2023-02-22T11:21:48;25.77;;;18.33;;
21786;SDS011;11055;50.870;4.316;2023-02-22T11:24:48;26.67;;;17.83;;
21786;SDS011;11055;50.870;4.316;2023-02-22T11:27:33;33.78;;;23.83;;
21786;SDS011;11055;50.870;4.316;2023-02-22T11:32:48;27.13;;;20.02;;
21786;SDS011;11055;50.870;4.316;2023-02-22T11:37:53;24.30;;;20.83;;
21786;SDS011;11055;50.870;4.316;2023-02-22T11:40:33;27.60;;;21.73;;
21786;SDS011;11055;50.870;4.316;2023-02-22T11:43:32;26.15;;;21.02;;
21786;SDS011;11055;50.870;4.316;2023-02-22T11:46:04;26.13;;;21.58;;
21786;SDS011;11055;50.870;4.316;2023-02-22T11:48:31;27.50;;;21.33;;
21786;SDS011;11055;50.870;4.316;2023-02-22T11:56:18;29.02;;;22.95;;
21786;SDS011;11055;50.870;4.316;2023-02-22T11:58:55;29.48;;;22.02;;
21786;SDS011;11055;50.870;4.316;2023-02-22T12:01:40;26.80;;;22.58;;
21786;SDS011;11055;50.870;4.316;2023-02-22T12:21:00;29.02;;;24.17;;
21786;SDS011;11055;50.870;4.316;2023-02-22T12:26:30;31.35;;;25.40;;
21786;SDS011;11055;50.870;4.316;2023-02-22T12:29:10;31.50;;;24.58;;
21786;SDS011;11055;50.870;4.316;2023-02-22T12:31:48;32.10;;;25.73;;
21786;SDS011;11055;50.870;4.316;2023-02-22T12:36:53;31.92;;;26.50;;
21786;SDS011;11055;50.870;4.316;2023-02-22T12:41:56;34.38;;;26.60;;
21786;SDS011;11055;50.870;4.316;2023-02-22T12:44:28;34.60;;;28.38;;
21786;SDS011;11055;50.870;4.316;2023-02-22T12:46:59;35.22;;;27.90;;
21786;SDS011;11055;50.870;4.316;2023-02-22T12:49:39;36.90;;;29.58;;
21786;SDS011;11055;50.870;4.316;2023-02-22T13:00:37;33.03;;;26.60;;
21786;SDS011;11055;50.870;4.316;2023-02-22T13:06:04;33.45;;;25.30;;
21786;SDS011;11055;50.870;4.316;2023-02-22T13:16:46;33.38;;;27.50;;
21786;SDS011;11055;50.870;4.316;2023-02-22T13:25:44;37.60;;;28.48;;
21786;SDS011;11055;50.870;4.316;2023-02-22T13:28:20;37.30;;;28.50;;
21786;SDS011;11055;50.870;4.316;2023-02-22T13:36:37;36.05;;;29.33;;
21786;SDS011;11055;50.870;4.316;2023-02-22T13:41:55;38.40;;;30.30;;
21786;SDS011;11055;50.870;4.316;2023-02-22T13:47:41;42.72;;;32.53;;
21786;SDS011;11055;50.870;4.316;2023-02-22T13:53:13;42.50;;;34.60;;
21786;SDS011;11055;50.870;4.316;2023-02-22T13:55:43;43.00;;;31.55;;
21786;SDS011;11055;50.870;4.316;2023-02-22T13:58:13;43.08;;;32.08;;
21786;SDS011;11055;50.870;4.316;2023-02-22T14:08:07;41.80;;;33.03;;
21786;SDS011;11055;50.870;4.316;2023-02-22T14:14:15;38.30;;;32.10;;
21786;SDS011;11055;50.870;4.316;2023-02-22T14:16:28;43.38;;;33.40;;
21786;SDS011;11055;50.870;4.316;2023-02-22T14:19:02;38.15;;;33.15;;
21786;SDS011;11055;50.870;4.316;2023-02-22T14:21:59;43.33;;;33.10;;
21786;SDS011;11055;50.870;4.316;2023-02-22T14:24:42;41.30;;;32.92;;
21786;SDS011;11055;50.870;4.316;2023-02-22T14:27:10;42.55;;;35.22;;
21786;SDS011;11055;50.870;4.316;2023-02-22T14:29:47;46.22;;;35.13;;
21786;SDS011;11055;50.870;4.316;2023-02-22T14:32:18;47.85;;;35.83;;
21786;SDS011;11055;50.870;4.316;2023-02-22T14:34:46;45.88;;;36.00;;
21786;SDS011;11055;50.870;4.316;2023-02-22T14:37:25;49.20;;;35.30;;
21786;SDS011;11055;50.870;4.316;2023-02-22T14:40:03;51.93;;;36.73;;
21786;SDS011;11055;50.870;4.316;2023-02-22T14:42:50;48.63;;;35.88;;
21786;SDS011;11055;50.870;4.316;2023-02-22T14:45:35;47.40;;;36.78;;
21786;SDS011;11055;50.870;4.316;2023-02-22T14:51:12;51.35;;;37.13;;
21786;SDS011;11055;50.870;4.316;2023-02-22T14:54:14;50.60;;;37.03;;
21786;SDS011;11055;50.870;4.316;2023-02-22T14:57:08;54.78;;;37.97;;
21786;SDS011;11055;50.870;4.316;2023-02-22T15:02:54;53.45;;;38.20;;
21786;SDS011;11055;50.870;4.316;2023-02-22T15:05:23;52.35;;;38.17;;
21786;SDS011;11055;50.870;4.316;2023-02-22T15:08:04;49.40;;;38.35;;
21786;SDS011;11055;50.870;4.316;2023-02-22T15:13:28;51.72;;;38.03;;
21786;SDS011;11055;50.870;4.316;2023-02-22T15:15:58;51.40;;;38.30;;
21786;SDS011;11055;50.870;4.316;2023-02-22T15:18:27;53.05;;;37.67;;
21786;SDS011;11055;50.870;4.316;2023-02-22T15:21:09;51.42;;;37.92;;
21786;SDS011;11055;50.870;4.316;2023-02-22T15:26:16;54.42;;;38.30;;
21786;SDS011;11055;50.870;4.316;2023-02-22T15:28:44;54.60;;;37.05;;
21786;SDS011;11055;50.870;4.316;2023-02-22T15:31:14;55.00;;;37.55;;
21786;SDS011;11055;50.870;4.316;2023-02-22T15:33:49;54.97;;;38.35;;
21786;SDS011;11055;50.870;4.316;2023-02-22T15:36:17;56.67;;;38.70;;
21786;SDS011;11055;50.870;4.316;2023-02-22T15:38:47;58.15;;;39.17;;
21786;SDS011;11055;50.870;4.316;2023-02-22T15:41:36;61.10;;;39.78;;
21786;SDS011;11055;50.870;4.316;2023-02-22T15:44:05;56.45;;;38.00;;
21786;SDS011;11055;50.870;4.316;2023-02-22T15:46:32;57.55;;;38.53;;
21786;SDS011;11055;50.870;4.316;2023-02-22T15:49:02;62.85;;;40.20;;
21786;SDS011;11055;50.870;4.316;2023-02-22T15:51:48;55.58;;;37.13;;
21786;SDS011;11055;50.870;4.316;2023-02-22T15:54:26;54.72;;;36.03;;
21786;SDS011;11055;50.870;4.316;2023-02-22T15:56:52;56.17;;;36.38;;
21786;SDS011;11055;50.870;4.316;2023-02-22T15:59:22;52.25;;;35.72;;
21786;SDS011;11055;50.870;4.316;2023-02-22T16:01:54;57.90;;;37.30;;
21786;SDS011;11055;50.870;4.316;2023-02-22T16:04:22;56.75;;;37.25;;
21786;SDS011;11055;50.870;4.316;2023-02-22T16:06:50;62.75;;;38.25;;
21786;SDS011;11055;50.870;4.316;2023-02-22T16:12:07;61.70;;;38.13;;
21786;SDS011;11055;50.870;4.316;2023-02-22T16:17:10;71.93;;;47.97;;
21786;SDS011;11055;50.870;4.316;2023-02-22T16:19:38;67.55;;;42.40;;
21786;SDS011;11055;50.870;4.316;2023-02-22T16:22:06;60.08;;;38.05;;
21786;SDS011;11055;50.870;4.316;2023-02-22T16:27:17;63.13;;;38.97;;
21786;SDS011;11055;50.870;4.316;2023-02-22T16:29:59;60.45;;;38.80;;
21786;SDS011;11055;50.870;4.316;2023-02-22T16:32:26;67.30;;;43.03;;
21786;SDS011;11055;50.870;4.316;2023-02-22T16:34:52;68.72;;;42.25;;
21786;SDS011;11055;50.870;4.316;2023-02-22T16:37:18;64.72;;;39.33;;
21786;SDS011;11055;50.870;4.316;2023-02-22T16:39:48;66.40;;;42.42;;
21786;SDS011;11055;50.870;4.316;2023-02-22T16:42:17;63.80;;;41.63;;
21786;SDS011;11055;50.870;4.316;2023-02-22T16:44:51;66.93;;;40.42;;
21786;SDS011;11055;50.870;4.316;2023-02-22T16:47:18;64.53;;;39.90;;
21786;SDS011;11055;50.870;4.316;2023-02-22T16:49:46;64.45;;;39.83;;
21786;SDS011;11055;50.870;4.316;2023-02-22T16:52:16;68.05;;;40.72;;
21786;SDS011;11055;50.870;4.316;2023-02-22T16:54:43;63.63;;;39.63;;
21786;SDS011;11055;50.870;4.316;2023-02-22T16:57:20;69.55;;;38.90;;
21786;SDS011;11055;50.870;4.316;2023-02-22T16:59:46;61.90;;;40.30;;
21786;SDS011;11055;50.870;4.316;2023-02-22T17:02:16;73.22;;;42.13;;
21786;SDS011;11055;50.870;4.316;2023-02-22T17:04:42;70.88;;;42.45;;
21786;SDS011;11055;50.870;4.316;2023-02-22T17:07:14;73.90;;;43.83;;
21786;SDS011;11055;50.870;4.316;2023-02-22T17:09:41;74.88;;;43.03;;
21786;SDS011;11055;50.870;4.316;2023-02-22T17:12:10;72.53;;;43.53;;
21786;SDS011;11055;50.870;4.316;2023-02-22T17:14:36;67.28;;;43.00;;
21786;SDS011;11055;50.870;4.316;2023-02-22T17:17:02;72.63;;;44.40;;
21786;SDS011;11055;50.870;4.316;2023-02-22T17:19:27;72.93;;;43.47;;
21786;SDS011;11055;50.870;4.316;2023-02-22T17:21:53;80.25;;;45.25;;
21786;SDS011;11055;50.870;4.316;2023-02-22T17:24:20;75.97;;;45.30;;
21786;SDS011;11055;50.870;4.316;2023-02-22T17:26:48;73.13;;;43.03;;
21786;SDS011;11055;50.870;4.316;2023-02-22T17:29:14;66.00;;;42.13;;
21786;SDS011;11055;50.870;4.316;2023-02-22T17:31:41;75.70;;;42.53;;
21786;SDS011;11055;50.870;4.316;2023-02-22T17:34:07;71.75;;;43.83;;
21786;SDS011;11055;50.870;4.316;2023-02-22T17:36:33;70.80;;;42.05;;